createdAt,value
2022-08-05T00:02:55.810Z,44.10
2022-08-05T00:08:03.302Z,44.22
2022-08-05T00:13:10.171Z,44.13
2022-08-05T00:18:21.712Z,44.21
2022-08-05T00:23:44.565Z,44.43
2022-08-05T00:28:31.805Z,44.42
2022-08-05T00:34:54.674Z,44.85
2022-08-05T00:38:46.245Z,45.22
2022-08-05T00:43:53.540Z,45.33
2022-08-05T00:49:00.779Z,45.29
2022-08-05T00:54:08.045Z,45.46
2022-08-05T00:59:15.258Z,45.63
2022-08-05T01:04:26.874Z,45.73
2022-08-05T01:09:30.473Z,45.99
2022-08-05T01:14:37.081Z,46.20
2022-08-05T01:20:02.424Z,46.30
2022-08-05T01:24:51.595Z,46.29
2022-08-05T01:29:58.940Z,46.36
2022-08-05T01:35:10.567Z,46.52
2022-08-05T01:40:13.746Z,46.53
2022-08-05T01:45:21.021Z,46.68
2022-08-05T01:50:28.574Z,46.71
2022-08-05T01:55:36.111Z,46.78
2022-08-05T02:00:42.737Z,46.85
2022-08-05T02:05:49.949Z,46.89
2022-08-05T02:10:57.186Z,46.91
2022-08-05T02:16:04.462Z,46.89
2022-08-05T02:21:15.191Z,46.86
2022-08-05T02:26:18.910Z,46.97
2022-08-05T02:31:26.175Z,47.13
2022-08-05T02:36:33.446Z,47.20
2022-08-05T02:41:58.066Z,47.46
2022-08-05T02:46:58.250Z,47.28
2022-08-05T02:52:02.804Z,47.48
2022-08-05T02:57:02.418Z,47.84
2022-08-05T03:02:09.700Z,47.98
2022-08-05T03:07:48.430Z,48.00
2022-08-05T03:12:24.164Z,48.69
2022-08-05T03:17:31.458Z,49.42
2022-08-05T03:22:38.638Z,49.31
2022-08-05T03:27:59.086Z,49.45
2022-08-05T03:32:53.009Z,49.71
2022-08-05T03:38:00.237Z,50.00
2022-08-05T03:43:58.986Z,50.06
2022-08-05T03:48:14.668Z,50.11
2022-08-05T03:55:34.250Z,50.08
2022-08-05T03:58:29.342Z,49.84
2022-08-05T04:03:38.101Z,49.86
2022-08-05T04:08:43.570Z,49.81
2022-08-05T04:13:53.411Z,49.74
2022-08-05T04:18:58.859Z,49.35
2022-08-05T04:24:07.086Z,49.16
2022-08-05T04:29:13.253Z,48.42
2022-08-05T04:34:32.658Z,48.00
2022-08-05T04:39:27.951Z,48.02
2022-08-05T04:44:34.914Z,47.59
2022-08-05T04:50:02.533Z,46.76
2022-08-05T04:54:49.576Z,47.26
2022-08-05T04:59:56.572Z,47.36
2022-08-05T05:05:03.853Z,47.44
2022-08-05T05:10:11.127Z,47.42
2022-08-05T05:15:56.974Z,47.55
2022-08-05T05:20:28.618Z,48.04
2022-08-05T05:25:40.480Z,48.29
2022-08-05T05:30:40.095Z,48.51
2022-08-05T05:35:47.927Z,48.62
2022-08-05T05:40:54.558Z,48.87
2022-08-05T05:46:01.769Z,49.30
2022-08-05T05:51:15.469Z,49.57
2022-08-05T05:56:16.225Z,49.62
2022-08-05T06:01:23.581Z,49.77
2022-08-05T06:06:33.260Z,49.68
2022-08-05T06:11:39.336Z,49.72
2022-08-05T06:16:45.271Z,49.57
2022-08-05T06:21:52.537Z,49.57
2022-08-05T06:26:59.757Z,49.55
2022-08-05T06:32:20.886Z,49.54
2022-08-05T06:37:14.203Z,49.58
2022-08-05T06:42:21.414Z,49.64
2022-08-05T06:48:11.843Z,49.52
2022-08-05T06:52:37.067Z,49.58
2022-08-05T06:58:03.713Z,49.98
2022-08-05T07:02:53.818Z,49.56
2022-08-05T07:07:57.605Z,49.58
2022-08-05T07:13:04.874Z,50.45
2022-08-05T07:18:17.651Z,50.64
2022-08-05T07:23:26.479Z,50.66
2022-08-05T07:28:26.660Z,51.13
2022-08-05T07:33:37.002Z,51.77
2022-08-05T07:38:43.094Z,52.06
2022-08-05T07:43:48.302Z,51.37
2022-08-05T07:49:02.903Z,51.74
2022-08-05T07:54:02.722Z,52.66
2022-08-05T07:59:09.913Z,52.33
2022-08-05T08:04:17.203Z,52.28
2022-08-05T08:09:24.451Z,52.38
2022-08-05T08:14:31.649Z,52.41
2022-08-05T08:20:22.635Z,52.58
2022-08-05T08:24:51.248Z,53.11
2022-08-05T08:30:05.361Z,53.78
2022-08-05T08:35:00.638Z,53.80
2022-08-05T08:40:07.862Z,53.83
2022-08-05T08:45:23.839Z,54.20
2022-08-05T08:50:52.600Z,53.73
2022-08-05T08:56:01.964Z,53.99
2022-08-05T09:00:36.971Z,53.26
2022-08-05T09:06:07.928Z,52.61
2022-08-05T09:10:51.232Z,52.38
2022-08-05T09:15:58.523Z,52.11
2022-08-05T09:21:05.689Z,52.18
2022-08-05T09:26:20.517Z,51.63
2022-08-05T09:32:38.671Z,51.43
2022-08-05T09:36:33.543Z,51.13
2022-08-05T09:41:38.266Z,51.52
2022-08-05T09:46:51.728Z,51.82
2022-08-05T09:51:49.717Z,51.25
2022-08-05T09:56:57.649Z,51.21
2022-08-05T10:02:03.672Z,50.97
2022-08-05T10:07:25.032Z,51.38
2022-08-05T10:12:30.948Z,51.35
2022-08-05T10:17:37.840Z,51.19
2022-08-05T10:22:37.691Z,51.09
2022-08-05T10:28:09.239Z,51.09
2022-08-05T10:33:02.068Z,51.09
2022-08-05T10:37:54.867Z,50.92
2022-08-05T10:43:02.104Z,50.83
2022-08-05T10:48:31.508Z,50.70
2022-08-05T10:53:17.494Z,50.74
2022-08-05T10:58:35.726Z,50.80
2022-08-05T11:03:31.107Z,50.83
2022-08-05T11:08:39.338Z,50.78
2022-08-05T11:13:54.995Z,50.82
2022-08-05T11:18:52.762Z,50.71
2022-08-05T11:24:04.751Z,50.67
2022-08-05T11:29:12.668Z,50.79
2022-08-05T11:34:14.808Z,51.00
2022-08-05T11:39:21.723Z,51.03
2022-08-05T11:44:40.752Z,50.83
2022-08-05T11:49:36.175Z,50.87
2022-08-05T11:54:43.533Z,50.95
2022-08-05T11:59:50.897Z,50.77
2022-08-05T12:04:59.204Z,50.86
2022-08-05T12:10:09.556Z,50.93
2022-08-05T12:15:16.651Z,50.88
2022-08-05T12:20:28.803Z,51.41
2022-08-05T12:25:28.569Z,51.13
2022-08-05T12:30:34.000Z,51.26
2022-08-05T12:35:43.105Z,51.23
2022-08-05T12:40:48.458Z,51.08
2022-08-05T12:45:55.737Z,51.05
2022-08-05T12:51:02.939Z,51.00
2022-08-05T12:56:34.330Z,51.17
2022-08-05T13:02:01.963Z,51.17
2022-08-05T13:06:24.540Z,51.30
2022-08-05T13:12:02.352Z,51.19
2022-08-05T13:16:39.072Z,51.19
2022-08-05T13:21:52.337Z,51.10
2022-08-05T13:26:53.506Z,50.97
2022-08-05T13:32:04.267Z,51.00
2022-08-05T13:37:07.911Z,50.94
2022-08-05T13:42:15.408Z,50.99
2022-08-05T13:47:36.142Z,51.13
2022-08-05T13:52:29.613Z,51.37
2022-08-05T13:57:50.573Z,51.25
2022-08-05T14:02:44.113Z,51.33
2022-08-05T14:08:01.010Z,51.51
2022-08-05T14:12:59.660Z,51.25
2022-08-05T14:18:06.499Z,51.25
2022-08-05T14:23:13.689Z,51.19
2022-08-05T14:28:26.397Z,51.11
2022-08-05T14:33:32.442Z,51.08
2022-08-05T14:38:36.410Z,51.02
2022-08-05T14:43:57.779Z,51.02
2022-08-05T14:48:50.424Z,51.00
2022-08-05T14:54:26.152Z,51.39
2022-08-05T14:59:04.803Z,51.70
2022-08-05T15:04:12.041Z,51.75
2022-08-05T15:09:52.044Z,51.81
2022-08-05T15:14:35.097Z,51.91
2022-08-05T15:19:33.816Z,51.91
2022-08-05T15:24:41.073Z,51.82
2022-08-05T15:29:48.996Z,51.78
2022-08-05T15:34:55.552Z,51.83
2022-08-05T15:40:59.775Z,51.99
2022-08-05T15:45:10.009Z,52.03
2022-08-05T15:50:17.204Z,52.21
2022-08-05T15:56:01.339Z,52.93
2022-08-05T16:00:50.196Z,52.34
2022-08-05T16:05:39.169Z,53.74
2022-08-05T16:10:46.249Z,55.00
2022-08-05T16:15:53.519Z,53.52
2022-08-05T16:21:03.966Z,54.83
2022-08-05T16:26:07.928Z,56.54
2022-08-05T16:31:15.198Z,55.86
2022-08-05T16:36:23.904Z,56.35
2022-08-05T16:42:14.590Z,56.31
2022-08-05T16:46:36.968Z,56.65
2022-08-05T16:51:50.988Z,56.56
2022-08-05T16:56:51.940Z,55.56
2022-08-05T17:02:00.874Z,55.13
2022-08-05T17:07:11.491Z,54.47
2022-08-05T17:12:13.233Z,55.05
2022-08-05T17:17:20.517Z,54.66
2022-08-05T17:22:28.078Z,54.59
2022-08-05T17:27:34.930Z,54.00
2022-08-05T17:32:42.347Z,53.38
2022-08-05T17:37:49.446Z,53.67
2022-08-05T17:42:56.615Z,53.77
2022-08-05T17:48:03.901Z,53.41
2022-08-05T17:53:11.149Z,53.30
2022-08-05T17:58:21.718Z,52.99
2022-08-05T18:03:58.642Z,53.05
2022-08-05T18:08:32.922Z,52.80
2022-08-05T18:13:43.808Z,52.81
2022-08-05T18:18:47.966Z,52.64
2022-08-05T18:23:54.669Z,52.51
2022-08-05T18:29:01.871Z,52.18
2022-08-05T18:34:11.977Z,52.23
2022-08-05T18:39:42.220Z,52.22
2022-08-05T18:44:32.953Z,51.72
2022-08-05T18:49:30.868Z,51.23
2022-08-05T18:54:41.418Z,51.10
2022-08-05T19:00:03.129Z,50.54
2022-08-05T19:05:02.073Z,51.15
2022-08-05T19:10:01.022Z,51.22
2022-08-05T19:15:25.029Z,51.30
2022-08-05T19:20:16.370Z,51.28
2022-08-05T19:25:30.084Z,51.32
2022-08-05T19:30:31.608Z,49.85
2022-08-05T19:35:56.013Z,50.38
2022-08-05T19:40:46.550Z,48.88
2022-08-05T19:45:54.763Z,49.25
2022-08-05T19:51:01.445Z,47.75
2022-08-05T19:56:14.878Z,47.95
2022-08-05T20:01:17.541Z,49.02
2022-08-05T20:06:29.171Z,49.51
2022-08-05T20:11:31.715Z,49.41
2022-08-05T20:16:39.199Z,50.64
2022-08-05T20:21:46.608Z,50.19
2022-08-05T20:26:53.924Z,50.55
2022-08-05T20:32:01.192Z,50.38
2022-08-05T20:37:17.773Z,50.48
2022-08-05T20:42:15.729Z,50.90
2022-08-05T20:47:32.094Z,50.92
2022-08-05T20:52:30.290Z,51.16
2022-08-05T20:57:44.057Z,50.97
2022-08-05T21:02:51.617Z,50.96
2022-08-05T21:07:52.479Z,51.01
2022-08-05T21:13:11.329Z,51.02
2022-08-05T21:18:06.428Z,50.87
2022-08-05T21:23:14.123Z,51.03
2022-08-05T21:28:23.737Z,51.08
2022-08-05T21:33:36.988Z,52.70
2022-08-05T21:38:38.734Z,52.76
2022-08-05T21:43:42.625Z,53.05
2022-08-05T21:48:49.821Z,53.41
2022-08-05T21:54:03.511Z,53.50
2022-08-05T21:59:07.743Z,54.05
2022-08-05T22:04:13.490Z,54.53
2022-08-05T22:09:21.545Z,54.96
2022-08-05T22:14:35.256Z,55.34
2022-08-05T22:20:00.767Z,55.07
2022-08-05T22:24:51.653Z,54.82
2022-08-05T22:29:47.582Z,54.71
2022-08-05T22:34:54.795Z,55.28
2022-08-05T22:40:02.130Z,55.22
2022-08-05T22:45:09.258Z,55.79
2022-08-05T22:50:20.401Z,56.21
2022-08-05T22:55:23.782Z,56.47
2022-08-05T23:00:31.325Z,56.54
2022-08-05T23:05:38.313Z,56.37
2022-08-05T23:10:46.547Z,56.22
2022-08-05T23:15:53.794Z,56.67
2022-08-05T23:21:01.078Z,56.48
2022-08-05T23:26:08.353Z,56.40
2022-08-05T23:31:17.401Z,57.22
2022-08-05T23:36:28.255Z,57.42
2022-08-05T23:41:30.061Z,57.68
2022-08-05T23:46:39.294Z,57.56
2022-08-05T23:51:44.590Z,57.54
2022-08-05T23:56:51.837Z,57.97
